x

Capers Nearshore (cap 2) (41029) Weather Station

5:08am - Tue 4th Aug 2015 All times are EDT. -4 hours from GMT.

  • Wind
    18mph, 25mph gusts
  • Air Temp 81°f
  • Sea Pressure 1010.9mb
  • Capers Nearshore (cap 2)
  • Capers Nearshore (cap 2)

More Historic Weather Station data

Upgrade to MSW Pro to gain access to the past 30 days of data for over 8000 Wavebouys and Weather Stations around the globe.

Join Pro

Comparision Forecast

View Surf forecast
   
Tue 08/04 5:08am 18 25 mph 1010.9mb 81f
4:08am 20 27 mph 1011.9mb 80f
3:08am 20 25 mph 1012mb 81f
2:08am 16 22 mph 1012.7mb 79f
1:08am 13 22 mph 1012.9mb 81f
12:08am 18 22 mph 1013.6mb 82f
Mon 08/03 11:08pm 16 20 mph 1015.8mb 82f
10:08pm 22 29 mph 1013mb 78f
9:08pm 13 16 mph 1012.9mb 83f
8:08pm 11 16 mph 1013mb 83f
7:08pm 11 16 mph 1012.9mb 82f
6:08pm 4 9 mph 1013.5mb 84f
5:08pm 9 11 mph 1013.7mb 83f
4:08pm 9 11 mph 1014.1mb 83f
3:08pm 13 16 mph 1013.6mb 83f
2:08pm 11 16 mph 1014.1mb 83f
1:08pm 7 11 mph 1014.4mb 83f
12:08pm 9 13 mph 1014.2mb 83f
11:08am 9 13 mph 1014.2mb 83f
10:08am 11 16 mph 1013.9mb 82f
9:08am 11 18 mph 1014mb 82f
8:08am 13 18 mph 1013.7mb 82f
7:08am 13 18 mph 1013.6mb 82f
6:08am 16 22 mph 1013mb 82f
5:08am 18 25 mph 1012.5mb 82f
4:08am 18 22 mph 1012.6mb 82f
3:08am 20 27 mph 1012.5mb 82f
2:08am 22 29 mph 1013mb 83f
1:08am 16 20 mph 1013.3mb 82f
12:08am 20 29 mph 1013.5mb 81f
Sun 08/02 11:08pm 25 31 mph 1013.6mb 80f
10:08pm 16 20 mph 1013.4mb 81f
9:08pm 18 22 mph 1013.2mb 80f
8:08pm 7 11 mph 1013.2mb 80f
7:08pm 4 7 mph 1013mb 79f
6:08pm 11 16 mph 1013.4mb 79f
5:08pm 18 22 mph 1013.2mb 79f
4:08pm 11 16 mph 1013.6mb 78f
3:08pm 16 20 mph 1014.5mb 78f
2:08pm 18 22 mph 1015.1mb 79f
1:08pm 18 22 mph 1014.6mb 80f
12:08pm 11 16 mph 1014.3mb 82f
11:08am 7 11 mph 1014.2mb 82f
10:08am 4 9 mph 1014mb 82f
9:08am 2 7 mph 1013.9mb 82f
8:08am 4 7 mph 1013.3mb 81f
7:08am 7 11 mph 1013mb 82f
6:08am 7 9 mph 1012.6mb 82f
5:08am 9 11 mph 1012.6mb 82f
4:08am 11 13 mph 1012.7mb 82f
3:08am 9 11 mph 1012.5mb 81f
2:08am 9 11 mph 1013.2mb 81f
1:08am 9 11 mph 1013.3mb 81f
12:08am 9 11 mph 1013.5mb 81f
Sat 08/01 11:08pm 9 11 mph 1013.7mb 81f
10:08pm 7 11 mph 1013.5mb 81f
9:08pm 7 9 mph 1012.6mb 80f
8:08pm 7 9 mph 1012.3mb 81f
7:08pm 7 11 mph 1012.3mb 81f
6:08pm 9 13 mph 1012.6mb 82f
5:08pm 7 11 mph 1012.5mb 81f
4:08pm 7 9 mph 1012.9mb 80f
3:08pm 9 13 mph 1013.5mb 80f
2:08pm 16 20 mph 1014.2mb 80f
1:08pm 13 18 mph 1014.6mb 80f
12:08pm 9 13 mph 1014.4mb 79f
11:08am 9 11 mph 1014mb 79f
10:08am 13 16 mph 1013.8mb 78f
9:08am 7 16 mph 1013.6mb 80f
8:08am 11 16 mph 1012.9mb 80f
7:08am 2 4 mph 1012.6mb 80f
6:08am 7 11 mph 1012.3mb 81f
5:08am 7 11 mph 1012.1mb 82f
4:08am 9 11 mph 1012.7mb 83f
3:08am 11 16 mph 1013.2mb 83f
2:08am 9 13 mph 1013.3mb 83f
1:08am 16 20 mph 1013.5mb 83f
12:08am 13 18 mph 1014.3mb 83f
Fri 07/31 11:08pm 16 20 mph 1014.3mb 83f
10:08pm 16 18 mph 1014.4mb 83f
9:08pm 16 20 mph 1013.7mb 82f
8:08pm 18 22 mph 1012.8mb 82f
6:08pm 18 25 mph 1012.9mb 82f
5:08pm 16 20 mph 1012.8mb 82f
4:08pm 13 18 mph 1012.5mb 82f
3:08pm 16 20 mph 1013.2mb 82f
2:08pm 11 16 mph 1013.8mb 83f
1:08pm 11 16 mph 1014.1mb 83f
12:08pm 18 25 mph 1014.3mb 82f
11:08am 16 20 mph 1014.6mb 82f